LFBY 301030Z AUTO VRB03KT 9999 // ////// 28/15 Q1013

ElémentsDécodage
LFBY Station météo située sur l'aérodrome de DAX Seyresse
301030Z émis le 30 du mois à 10h30 UTC
AUTO Bulletin édité par un automate
VRB03KT vent de direction variable, 03 noeuds
9999 visibilité horizontale supérieure à 10 Km
// élement non décodé
////// nébulosité (type et hauteur) non disponible
 type de nuage non observable
28/15 température 28°C, point de rosée 15°C
 soit une humidité relative de 45%
Q1013 la pression au niveau de la mer (QNH) est de 1013 hPa